createdAt,value
2019-04-26T00:01:55.149Z,1.53
2019-04-26T00:06:48.486Z,2.43
2019-04-26T00:11:53.066Z,1.60
2019-04-26T00:17:11.987Z,5.17
2019-04-26T00:22:05.350Z,1.90
2019-04-26T00:26:58.677Z,2.07
2019-04-26T00:31:52.003Z,2.07
2019-04-26T00:36:45.327Z,2.33
2019-04-26T00:41:39.050Z,2.77
2019-04-26T00:46:32.367Z,2.20
2019-04-26T00:51:26.240Z,4.23
2019-04-26T00:56:20.159Z,3.70
2019-04-26T01:01:15.090Z,2.63
2019-04-26T01:06:07.367Z,2.73
2019-04-26T01:11:00.694Z,3.27
2019-04-26T01:15:54.016Z,3.27
2019-04-26T01:20:47.333Z,2.43
2019-04-26T01:25:41.977Z,2.43
2019-04-26T01:30:35.461Z,2.43
2019-04-26T01:35:29.479Z,2.83
2019-04-26T01:40:24.131Z,2.30
2019-04-26T01:45:39.521Z,4.83
2019-04-26T01:50:33.122Z,2.93
2019-04-26T01:55:26.994Z,3.53
2019-04-26T02:01:01.139Z,3.40
2019-04-26T02:06:32.033Z,1.57
2019-04-26T02:11:52.725Z,4.20
2019-04-26T02:16:58.593Z,3.63
2019-04-26T02:22:20.544Z,3.57
2019-04-26T02:27:30.382Z,3.00
2019-04-26T02:32:25.269Z,3.73
2019-04-26T02:37:18.977Z,2.57
2019-04-26T02:42:17.121Z,2.87
2019-04-26T02:47:47.681Z,3.13
2019-04-26T02:52:55.137Z,4.03
2019-04-26T02:57:49.195Z,2.60
2019-04-26T03:02:43.244Z,3.53
2019-04-26T03:07:46.998Z,2.97
2019-04-26T03:12:40.469Z,5.83
2019-04-26T03:17:40.089Z,6.33
2019-04-26T03:22:42.685Z,3.07
2019-04-26T03:27:44.079Z,3.67
2019-04-26T03:33:11.938Z,2.53
2019-04-26T03:38:26.778Z,2.10
2019-04-26T03:43:36.839Z,2.90
2019-04-26T03:48:44.830Z,3.63
2019-04-26T03:53:43.884Z,2.13
2019-04-26T03:58:57.384Z,4.27
2019-04-26T04:04:00.506Z,4.20
2019-04-26T04:08:59.459Z,3.57
2019-04-26T04:13:54.404Z,2.60
2019-04-26T04:19:10.531Z,2.87
2019-04-26T04:24:20.020Z,3.83
2019-04-26T04:29:42.955Z,4.10
2019-04-26T04:34:31.742Z,2.43
2019-04-26T04:39:30.865Z,2.63
2019-04-26T04:44:31.956Z,3.87
2019-04-26T04:49:34.848Z,3.80
2019-04-26T04:54:32.665Z,4.23
2019-04-26T04:59:28.121Z,2.03
2019-04-26T05:04:25.018Z,3.70
2019-04-26T05:09:21.215Z,4.20
2019-04-26T05:14:18.203Z,4.63
2019-04-26T05:19:46.861Z,3.37
2019-04-26T05:24:45.669Z,2.90
2019-04-26T05:29:46.457Z,2.90
2019-04-26T05:34:41.178Z,3.10
2019-04-26T05:39:39.063Z,4.37
2019-04-26T05:44:38.002Z,5.07
2019-04-26T05:49:57.914Z,4.77
2019-04-26T05:55:00.799Z,3.47
2019-04-26T06:00:01.105Z,3.67
2019-04-26T06:05:05.276Z,2.40
2019-04-26T06:10:10.736Z,2.63
2019-04-26T06:15:41.871Z,5.90
2019-04-26T06:20:36.504Z,3.20
2019-04-26T06:26:01.400Z,3.10
2019-04-26T06:31:08.591Z,3.57
2019-04-26T06:36:04.341Z,3.70
2019-04-26T06:41:00.795Z,4.03
2019-04-26T06:46:09.664Z,3.17
2019-04-26T06:51:06.931Z,3.47
2019-04-26T06:56:05.645Z,3.93
2019-04-26T07:01:23.388Z,3.20
2019-04-26T07:06:16.701Z,4.47
2019-04-26T07:11:35.439Z,2.52
2019-04-26T07:16:34.207Z,4.10
2019-04-26T07:22:08.777Z,3.13
2019-04-26T07:27:20.831Z,4.27
2019-04-26T07:32:22.608Z,5.03
2019-04-26T07:37:31.432Z,6.53
2019-04-26T07:42:55.655Z,3.00
2019-04-26T07:48:17.235Z,3.60
2019-04-26T07:53:32.224Z,6.07
2019-04-26T07:58:44.982Z,7.97
2019-04-26T08:03:44.406Z,7.53
2019-04-26T08:08:43.896Z,4.03
2019-04-26T08:13:38.856Z,2.57
2019-04-26T08:18:37.189Z,6.47
2019-04-26T08:23:39.686Z,2.93
2019-04-26T08:28:24.538Z,4.07
2019-04-26T08:33:19.009Z,1.97
2019-04-26T08:38:18.790Z,2.90
2019-04-26T08:43:30.803Z,3.13
2019-04-26T08:48:29.979Z,4.67
2019-04-26T08:53:23.344Z,3.60
2019-04-26T08:58:16.648Z,4.90
2019-04-26T09:03:18.935Z,2.53
2019-04-26T09:08:12.224Z,3.37
2019-04-26T09:13:06.249Z,2.33
2019-04-26T09:18:02.174Z,3.30
2019-04-26T09:23:22.123Z,3.93
2019-04-26T09:28:37.199Z,3.97
2019-04-26T09:33:43.708Z,3.13
2019-04-26T09:38:36.981Z,3.47
2019-04-26T09:43:41.017Z,1.53
2019-04-26T09:48:39.521Z,2.60
2019-04-26T09:53:32.957Z,2.37
2019-04-26T09:58:26.921Z,5.20
2019-04-26T10:03:19.974Z,2.70
2019-04-26T10:08:14.547Z,4.23
2019-04-26T10:13:15.515Z,1.40
2019-04-26T10:18:08.831Z,2.33
2019-04-26T10:23:02.123Z,3.20
2019-04-26T10:27:55.388Z,3.83
2019-04-26T10:32:48.871Z,2.70
2019-04-26T10:37:44.018Z,2.60
2019-04-26T10:42:35.463Z,5.93
2019-04-26T10:47:28.748Z,4.27
2019-04-26T10:52:29.944Z,4.47
2019-04-26T10:57:29.782Z,5.73
2019-04-26T11:02:23.284Z,3.00
2019-04-26T11:07:16.580Z,3.83
2019-04-26T11:12:10.023Z,3.20
2019-04-26T11:17:03.408Z,3.00
2019-04-26T11:21:56.799Z,4.97
2019-04-26T11:26:50.121Z,5.87
2019-04-26T11:31:43.535Z,5.77
2019-04-26T11:36:37.623Z,6.47
2019-04-26T11:41:30.325Z,5.23
2019-04-26T11:46:29.239Z,5.63
2019-04-26T11:51:17.109Z,10.13
2019-04-26T11:56:10.453Z,6.73
2019-04-26T12:01:04.286Z,8.67
2019-04-26T12:06:05.874Z,10.53
2019-04-26T12:10:59.536Z,7.80
2019-04-26T12:15:52.878Z,9.00
2019-04-26T12:20:46.235Z,8.37
2019-04-26T12:25:43.586Z,7.87
2019-04-26T12:30:32.994Z,8.33
2019-04-26T12:35:26.324Z,9.13
2019-04-26T12:40:19.767Z,14.90
2019-04-26T12:45:21.912Z,9.97
2019-04-26T12:50:15.433Z,8.40
2019-04-26T12:55:08.739Z,7.83
2019-04-26T13:00:03.556Z,8.60
2019-04-26T13:04:55.464Z,7.50
2019-04-26T13:10:06.868Z,8.63
2019-04-26T13:15:36.352Z,5.40
2019-04-26T13:20:30.230Z,5.77
2019-04-26T13:25:26.616Z,8.80
2019-04-26T13:30:16.531Z,8.00
2019-04-26T13:35:11.309Z,8.37
2019-04-26T13:40:03.834Z,6.37
2019-04-26T13:45:16.406Z,6.90
2019-04-26T13:50:38.121Z,5.57
2019-04-26T13:55:33.680Z,6.93
2019-04-26T14:00:27.113Z,5.57
2019-04-26T14:05:20.451Z,8.07
2019-04-26T14:10:13.955Z,5.27
2019-04-26T14:15:08.423Z,3.53
2019-04-26T14:20:00.687Z,3.03
2019-04-26T14:25:06.459Z,5.50
2019-04-26T14:30:02.592Z,4.27
2019-04-26T14:34:53.492Z,5.83
2019-04-26T14:39:50.557Z,6.40
2019-04-26T14:44:49.242Z,2.60
2019-04-26T14:49:39.133Z,3.53
2019-04-26T14:54:28.008Z,2.00
2019-04-26T14:59:43.086Z,5.30
2019-04-26T15:04:43.990Z,3.07
2019-04-26T15:09:37.332Z,4.00
2019-04-26T15:14:30.653Z,3.30
2019-04-26T15:19:24.554Z,3.87
2019-04-26T15:24:17.866Z,3.17
2019-04-26T15:29:12.685Z,4.90
2019-04-26T15:34:04.652Z,6.20
2019-04-26T15:38:58.086Z,2.93
2019-04-26T15:44:20.309Z,1.83
2019-04-26T15:49:36.921Z,4.77
2019-04-26T15:54:28.833Z,3.60
2019-04-26T15:59:25.202Z,3.90
2019-04-26T16:04:17.329Z,5.67
2019-04-26T16:09:09.062Z,5.93
2019-04-26T16:14:02.388Z,5.33
2019-04-26T16:18:57.223Z,2.83
2019-04-26T16:23:54.076Z,5.60
2019-04-26T16:29:07.384Z,3.13
2019-04-26T16:34:04.108Z,3.10
2019-04-26T16:38:58.013Z,5.77
2019-04-26T16:43:53.106Z,5.10
2019-04-26T16:48:44.544Z,4.63
2019-04-26T16:58:30.935Z,6.20
2019-04-26T17:03:26.244Z,5.03
2019-04-26T17:08:19.276Z,5.00
2019-04-26T17:09:38.414Z,5.47
2019-04-26T17:13:10.920Z,3.87
2019-04-26T17:18:04.322Z,5.17
2019-04-26T17:23:04.417Z,3.20
2019-04-26T17:27:57.863Z,4.57
2019-04-26T17:32:51.887Z,4.73
2019-04-26T17:37:44.514Z,3.03
2019-04-26T17:42:37.967Z,3.20
2019-04-26T17:47:33.028Z,3.70
2019-04-26T17:52:25.347Z,4.40
2019-04-26T17:57:32.033Z,3.83
2019-04-26T18:02:25.576Z,5.70
2019-04-26T18:07:33.989Z,3.67
2019-04-26T18:12:00.056Z,6.20
2019-04-26T18:17:01.448Z,1.67
2019-04-26T18:22:14.682Z,4.57
2019-04-26T18:27:06.407Z,3.03
2019-04-26T18:32:03.618Z,4.47
2019-04-26T18:36:53.344Z,2.57
2019-04-26T18:41:46.739Z,2.63
2019-04-26T18:46:47.143Z,2.83
2019-04-26T18:51:43.294Z,5.27
2019-04-26T18:56:39.721Z,8.00
2019-04-26T19:01:27.362Z,3.73
2019-04-26T19:06:31.102Z,4.83
2019-04-26T19:11:14.129Z,3.80
2019-04-26T19:16:17.052Z,5.80
2019-04-26T19:21:23.257Z,3.90
2019-04-26T19:26:16.617Z,5.37
2019-04-26T19:31:09.909Z,4.20
2019-04-26T19:36:03.433Z,5.87
2019-04-26T19:40:56.807Z,4.00
2019-04-26T19:45:56.006Z,3.23
2019-04-26T19:50:55.816Z,5.33
2019-04-26T19:55:56.060Z,5.63
2019-04-26T20:00:49.379Z,2.13
2019-04-26T20:05:44.157Z,4.43
2019-04-26T20:10:40.429Z,4.03
2019-04-26T20:15:29.339Z,5.07
2019-04-26T20:20:23.811Z,3.90
2019-04-26T20:25:16.209Z,3.80
2019-04-26T20:30:12.574Z,3.23
2019-04-26T20:35:14.363Z,3.23
2019-04-26T20:40:18.619Z,5.13
2019-04-26T20:45:04.377Z,4.63
2019-04-26T20:50:01.117Z,4.27
2019-04-26T20:54:52.641Z,4.60
2019-04-26T20:59:41.619Z,6.30
2019-04-26T21:04:38.422Z,6.57
2019-04-26T21:09:28.661Z,6.87
2019-04-26T21:14:22.079Z,5.83
2019-04-26T21:19:19.090Z,4.97
2019-04-26T21:24:08.683Z,6.70
2019-04-26T21:29:21.758Z,5.67
2019-04-26T21:34:17.747Z,4.00
2019-04-26T21:39:21.984Z,3.93
2019-04-26T21:44:15.805Z,6.00
2019-04-26T21:49:08.860Z,5.00
2019-04-26T21:54:03.754Z,5.70
2019-04-26T21:58:55.630Z,6.57
2019-04-26T22:03:53.978Z,4.53
2019-04-26T22:08:46.157Z,5.30
2019-04-26T22:13:58.728Z,8.73
2019-04-26T22:19:07.647Z,9.83
2019-04-26T22:24:23.376Z,5.97
2019-04-26T22:29:16.844Z,6.70
2019-04-26T22:34:09.096Z,5.57
2019-04-26T22:39:03.274Z,7.33
2019-04-26T22:44:05.956Z,6.13
2019-04-26T22:49:01.242Z,4.90
2019-04-26T22:53:53.423Z,7.33
2019-04-26T22:58:46.831Z,4.37
2019-04-26T23:03:41.126Z,4.03
2019-04-26T23:08:35.256Z,4.17
2019-04-26T23:13:41.199Z,3.73
2019-04-26T23:18:46.185Z,6.97
2019-04-26T23:23:37.088Z,4.90
2019-04-26T23:28:33.975Z,4.93
2019-04-26T23:33:23.935Z,5.80
2019-04-26T23:38:16.615Z,4.53
2019-04-26T23:43:09.979Z,5.77
2019-04-26T23:48:03.596Z,4.33
2019-04-26T23:52:56.530Z,4.80
2019-04-26T23:57:49.810Z,3.00
